Time;durP1;ratioP1;P1;durP2;ratioP2;P2;SDS_P1;SDS_P2;PMS_P1;PMS_P2;Temp;Humidity;BMP_temperature;BMP_pressure;BME280_temperature;BME280_humidity;BME280_pressure;Samples;Min_cycle;Max_cycle;Signal;HPM_P1;HPM_P2
2022/04/19 00:00:34;;;;;;;;;0.00;0.00;;;;;17.82;42.95;100955.63;2096786;28;47849;-60
2022/04/19 00:01:35;;;;;;;;;7.80;6.80;;;;;17.83;42.89;100951.13;2097285;27;47591;-59
2022/04/19 00:02:35;;;;;;;;;6.40;5.80;;;;;17.83;42.97;100954.66;2103795;28;47725;-60
2022/04/19 00:03:36;;;;;;;;;8.00;6.00;;;;;17.84;42.63;100953.72;2082270;28;47486;-58
2022/04/19 00:04:37;;;;;;;;;10.40;7.60;;;;;17.83;42.67;100954.66;2086396;28;48269;-59
2022/04/19 00:05:38;;;;;;;;;8.00;8.00;;;;;17.83;42.56;100954.66;2103820;28;47863;-59
2022/04/19 00:06:39;;;;;;;;;8.00;6.50;;;;;17.83;42.67;100956.47;2095359;28;47823;-59
2022/04/19 00:07:40;;;;;;;;;5.50;5.25;;;;;17.83;42.44;100953.81;2095122;28;48339;-58
2022/04/19 00:08:41;;;;;;;;;5.25;5.25;;;;;17.82;42.54;100950.25;2104291;28;48331;-59
2022/04/19 00:09:41;;;;;;;;;5.75;5.75;;;;;17.83;42.47;100953.81;2102714;28;47717;-58
2022/04/19 00:10:42;;;;;;;;;6.00;6.00;;;;;17.82;42.50;100949.38;2095950;28;47513;-59
2022/04/19 00:11:43;;;;;;;;;4.80;4.80;;;;;17.81;42.62;100950.31;2095650;28;47662;-59
2022/04/19 00:12:43;;;;;;;;;6.33;6.33;;;;;17.79;42.61;100947.72;2101764;28;47537;-59
2022/04/19 00:13:44;;;;;;;;;4.67;4.33;;;;;17.77;42.46;100949.56;2096155;28;47685;-60
2022/04/19 00:14:44;;;;;;;;;5.00;4.00;;;;;17.77;42.55;100944.22;2099649;28;46268;-59
2022/04/19 00:15:45;;;;;;;;;5.00;5.00;;;;;17.77;42.54;100946.03;2095935;28;47378;-59
2022/04/19 00:16:46;;;;;;;;;5.00;4.50;;;;;17.77;42.54;100941.53;2101968;28;47357;-59
2022/04/19 00:17:48;;;;;;;;;4.25;4.25;;;;;17.77;42.54;100946.88;2101870;27;48111;-59
2022/04/19 00:18:48;;;;;;;;;9.20;7.20;;;;;17.77;42.36;100938.84;2095888;28;47700;-59
2022/04/19 00:19:49;;;;;;;;;5.33;4.00;;;;;17.78;42.28;100939.72;2100741;27;47738;-59
2022/04/19 00:20:49;;;;;;;;;7.00;5.00;;;;;17.77;42.62;100943.34;2103513;28;47958;-60
2022/04/19 00:21:49;;;;;;;;;6.00;5.00;;;;;17.78;42.32;100942.38;2104097;27;47908;-60
2022/04/19 00:22:50;;;;;;;;;6.33;5.33;;;;;17.78;42.26;100939.72;2103999;27;48178;-59
2022/04/19 00:23:51;;;;;;;;;5.75;5.75;;;;;17.77;42.27;100935.28;2104422;28;48056;-59
2022/04/19 00:24:51;;;;;;;;;6.00;6.00;;;;;17.74;42.18;100930.94;2103614;27;47484;-58
2022/04/19 00:25:52;;;;;;;;;6.00;6.00;;;;;17.74;42.46;100928.25;2103684;27;47226;-61
2022/04/19 00:26:55;;;;;;;;;8.00;6.00;;;;;17.76;42.59;100933.53;2104215;28;46743;-59
2022/04/19 00:27:55;;;;;;;;;7.00;5.75;;;;;17.76;42.48;100929.03;2103395;27;48137;-59
2022/04/19 00:28:56;;;;;;;;;7.67;6.33;;;;;17.74;42.23;100933.63;2103878;27;47844;-59
2022/04/19 00:29:56;;;;;;;;;3.00;3.00;;;;;17.72;42.53;100930.16;2100694;28;47244;-59
2022/04/19 00:30:57;;;;;;;;;4.67;4.67;;;;;17.71;42.68;100936.47;2102339;27;47531;-60
2022/04/19 00:31:58;;;;;;;;;6.25;5.00;;;;;17.72;42.40;100935.53;2095935;28;47765;-59
2022/04/19 00:32:58;;;;;;;;;5.67;4.33;;;;;17.72;42.53;100926.59;2102289;27;47592;-60
2022/04/19 00:33:58;;;;;;;;;8.33;6.33;;;;;17.72;42.70;100935.53;2100539;27;47277;-59
2022/04/19 00:34:59;;;;;;;;;5.67;5.33;;;;;17.73;42.59;100934.56;2102616;27;47971;-59
2022/04/19 00:35:59;;;;;;;;;6.67;6.67;;;;;17.75;42.52;100937.19;2107000;27;47407;-59
2022/04/19 00:37:01;;;;;;;;;6.00;5.00;;;;;17.75;42.61;100935.34;2104752;27;47507;-58
2022/04/19 00:38:01;;;;;;;;;5.25;5.25;;;;;17.75;42.38;100932.69;2100447;27;47814;-58
2022/04/19 00:39:01;;;;;;;;;5.00;4.00;;;;;17.76;42.34;100928.19;2102110;27;48056;-57
2022/04/19 00:40:03;;;;;;;;;5.33;5.33;;;;;17.76;42.01;100936.22;2086688;28;47627;-59
2022/04/19 00:41:04;;;;;;;;;3.50;3.50;;;;;17.76;42.04;100946.97;2097664;28;47853;-59
2022/04/19 00:42:04;;;;;;;;;6.00;6.00;;;;;17.75;42.46;100940.72;2106609;27;47538;-58
2022/04/19 00:43:06;;;;;;;;;7.00;6.00;;;;;17.75;42.35;100934.50;2096125;27;48098;-59
2022/04/19 00:44:07;;;;;;;;;4.75;4.00;;;;;17.73;42.51;100934.56;2101988;27;48120;-59
2022/04/19 00:45:08;;;;;;;;;3.75;3.50;;;;;17.72;42.13;100931.97;2099128;27;47603;-59
2022/04/19 00:46:08;;;;;;;;;4.00;4.00;;;;;17.71;42.09;100935.59;2100707;27;48111;-59
2022/04/19 00:47:10;;;;;;;;;4.33;4.00;;;;;17.70;42.08;100936.53;2081461;28;47694;-59
2022/04/19 00:48:10;;;;;;;;;6.00;6.00;;;;;17.70;41.79;100931.16;2087480;28;47406;-60
2022/04/19 00:49:11;;;;;;;;;4.00;4.00;;;;;17.69;42.27;100934.81;2108091;27;47137;-59
2022/04/19 00:50:11;;;;;;;;;4.33;4.00;;;;;17.67;41.77;100934.84;2107837;27;47681;-60
2022/04/19 00:51:13;;;;;;;;;5.00;4.67;;;;;17.63;41.92;100938.59;2097205;28;47922;-60
2022/04/19 00:52:15;;;;;;;;;5.25;5.25;;;;;17.59;41.86;100929.81;2101997;27;48273;-60
2022/04/19 00:53:17;;;;;;;;;3.25;3.25;;;;;17.58;42.31;100937.97;2095725;28;47874;-60
2022/04/19 00:54:18;;;;;;;;;3.00;3.00;;;;;17.57;41.60;100934.41;2096329;28;47744;-60
2022/04/19 00:55:18;;;;;;;;;3.00;3.00;;;;;17.56;41.73;100932.66;2105624;27;47643;-60
2022/04/19 00:56:19;;;;;;;;;3.00;3.00;;;;;17.55;41.77;100938.97;2104913;27;47846;-59
2022/04/19 00:57:20;;;;;;;;;3.00;3.00;;;;;17.55;41.76;100933.59;2105193;28;47815;-60
2022/04/19 00:58:20;;;;;;;;;2.33;2.33;;;;;17.55;41.97;100930.06;2104937;28;48193;-59
2022/04/19 00:59:24;;;;;;;;;3.33;3.33;;;;;17.54;42.02;100923.81;2105311;28;47790;-60
2022/04/19 01:00:25;;;;;;;;;4.75;4.75;;;;;17.56;41.55;100926.44;2105310;28;47421;-60
2022/04/19 01:01:25;;;;;;;;;3.67;3.67;;;;;17.55;41.86;100922.88;2105307;28;48124;-59
2022/04/19 01:02:26;;;;;;;;;3.67;3.00;;;;;17.56;41.75;100919.25;2082668;28;47541;-59
2022/04/19 01:03:27;;;;;;;;;3.67;3.67;;;;;17.57;41.44;100926.34;2079018;28;47547;-61
2022/04/19 01:04:27;;;;;;;;;4.00;4.00;;;;;17.57;41.39;100920.13;2104777;28;48135;-59
2022/04/19 01:05:27;;;;;;;;;4.33;4.33;;;;;17.54;41.66;100918.47;2105094;27;47864;-60
2022/04/19 01:06:29;;;;;;;;;3.00;3.00;;;;;17.54;41.65;100914.91;2105316;28;47434;-60
2022/04/19 01:07:30;;;;;;;;;4.50;4.00;;;;;17.53;41.44;100922.09;2105279;28;47909;-58
2022/04/19 01:08:31;;;;;;;;;4.75;3.25;;;;;17.51;41.52;100915.88;2105039;28;47682;-59
2022/04/19 01:09:31;;;;;;;;;3.67;3.67;;;;;17.51;41.50;100923.94;2105443;28;48229;-60
2022/04/19 01:10:33;;;;;;;;;4.33;3.00;;;;;17.50;41.54;100919.53;2105258;28;47878;-60
2022/04/19 01:14:12;;;;;;;;;4.25;3.25;;;;;17.47;41.22;100921.47;2105413;28;47751;-59
2022/04/19 01:15:12;;;;;;;;;2.67;2.67;;;;;17.47;41.43;100919.66;2105235;28;48047;-60
2022/04/19 01:16:14;;;;;;;;;5.67;4.00;;;;;17.46;41.94;100914.38;2105462;28;47359;-59
2022/04/19 01:17:15;;;;;;;;;4.00;3.75;;;;;17.46;42.12;100923.28;2105307;28;46744;-59
2022/04/19 01:18:25;;;;;;;;;6.00;6.00;;;;;17.45;41.77;100918.00;2103076;28;47615;-59
2022/04/19 01:19:26;;;;;;;;;4.67;4.00;;;;;17.43;41.89;100920.75;2097106;28;47679;-59
2022/04/19 01:20:28;;;;;;;;;3.00;1.00;;;;;17.42;41.72;100921.72;2104044;28;47545;-60
2022/04/19 01:21:42;;;;;;;;;3.25;3.25;;;;;17.42;41.54;100921.72;2105119;28;47928;-60
2022/04/19 01:22:43;;;;;;;;;3.00;3.00;;;;;17.42;41.31;100923.53;2105289;28;47952;-59
2022/04/19 01:23:44;;;;;;;;;3.00;3.00;;;;;17.42;41.61;100926.22;2104666;28;47424;-59
2022/04/19 01:24:44;;;;;;;;;5.33;4.00;;;;;17.40;41.10;100920.88;2104773;27;47388;-59
2022/04/19 01:25:45;;;;;;;;;4.00;4.00;;;;;17.39;41.23;100915.59;2095462;28;48240;-59
2022/04/19 01:26:46;;;;;;;;;3.33;3.33;;;;;17.38;41.10;100919.22;2089580;28;47536;-58
2022/04/19 01:27:47;;;;;;;;;4.00;4.00;;;;;17.37;41.30;100915.66;2097143;28;48072;-59
2022/04/19 01:28:48;;;;;;;;;3.00;3.00;;;;;17.36;41.38;100917.47;2104682;28;48385;-58
2022/04/19 01:29:49;;;;;;;;;4.33;4.33;;;;;17.38;41.23;100919.22;2104559;28;47927;-59
2022/04/19 01:30:52;;;;;;;;;3.00;3.00;;;;;17.36;41.42;100917.47;2078664;28;45872;-60
2022/04/19 01:31:54;;;;;;;;;1.75;1.75;;;;;17.35;41.19;100913.06;2078547;28;48239;-58
2022/04/19 01:32:54;;;;;;;;;2.25;2.25;;;;;17.35;41.22;100909.50;2079121;28;47950;-59
2022/04/19 01:33:56;;;;;;;;;3.67;3.00;;;;;17.35;40.98;100913.06;2079276;28;47699;-59
2022/04/19 01:35:12;;;;;;;;;2.00;2.00;;;;;17.34;40.87;100913.13;2079033;28;47991;-60
2022/04/19 01:36:12;;;;;;;;;3.00;3.00;;;;;17.33;41.48;100914.94;2079230;28;47603;-57
2022/04/19 01:37:15;;;;;;;;;4.00;4.00;;;;;17.33;41.30;100909.59;2079132;28;47851;-59
2022/04/19 01:38:15;;;;;;;;;4.00;4.00;;;;;17.35;41.29;100912.19;2062615;28;47559;-59
2022/04/19 01:39:16;;;;;;;;;5.75;4.50;;;;;17.36;41.47;100908.56;2061414;28;48063;-58
2022/04/19 01:40:17;;;;;;;;;4.50;4.00;;;;;17.35;41.43;100905.00;2070987;28;47699;-59
2022/04/19 01:41:18;;;;;;;;;6.80;5.80;;;;;17.34;41.61;100905.09;2076473;28;47522;-57
2022/04/19 01:42:18;;;;;;;;;4.33;2.33;;;;;17.31;41.71;100906.13;2079132;28;47345;-57
2022/04/19 01:43:19;;;;;;;;;3.25;3.25;;;;;17.30;41.55;100904.38;2071076;28;47474;-59
2022/04/19 01:44:20;;;;;;;;;4.00;4.00;;;;;17.29;41.71;100905.31;2070999;28;48164;-59
2022/04/19 01:45:25;;;;;;;;;8.00;6.75;;;;;17.29;41.88;100907.13;2079195;28;48099;-60
2022/04/19 01:46:31;;;;;;;;;6.00;6.00;;;;;17.28;41.81;100900.91;2078608;28;48086;-59
2022/04/19 01:47:32;;;;;;;;;6.00;6.00;;;;;17.27;42.10;100903.63;2070411;28;47399;-59
2022/04/19 01:48:32;;;;;;;;;5.00;5.00;;;;;17.25;41.97;100906.38;2070858;28;47518;-60
2022/04/19 01:49:34;;;;;;;;;8.25;7.00;;;;;17.25;42.21;100903.69;2078123;28;48303;-59
2022/04/19 01:50:37;;;;;;;;;6.00;6.00;;;;;17.24;41.92;100899.28;2078749;28;48039;-59
2022/04/19 01:51:38;;;;;;;;;4.75;4.75;;;;;17.25;41.82;100908.19;2074082;28;47533;-60
2022/04/19 01:52:40;;;;;;;;;6.00;6.00;;;;;17.24;42.43;100901.97;2076533;28;47793;-59
2022/04/19 01:53:41;;;;;;;;;5.40;5.40;;;;;17.22;42.12;100898.47;2078845;28;47392;-60
2022/04/19 01:54:41;;;;;;;;;5.00;5.00;;;;;17.23;41.99;100899.34;2078703;28;48012;-59
2022/04/19 01:55:42;;;;;;;;;5.75;5.50;;;;;17.23;41.94;100908.25;2078831;28;47988;-59
2022/04/19 01:56:44;;;;;;;;;4.00;4.00;;;;;17.23;41.65;100905.59;2078175;28;47886;-60
2022/04/19 01:57:46;;;;;;;;;4.75;4.00;;;;;17.24;41.97;100904.63;2078593;28;48258;-60
2022/04/19 01:58:48;;;;;;;;;5.00;5.00;;;;;17.25;41.95;100908.19;2079014;28;47917;-60
2022/04/19 01:59:48;;;;;;;;;4.00;4.00;;;;;17.25;42.11;100908.19;2078976;28;47932;-59
2022/04/19 02:00:49;;;;;;;;;5.00;5.00;;;;;17.23;41.90;100905.59;2078840;28;47625;-59
2022/04/19 02:01:49;;;;;;;;;7.00;6.50;;;;;17.20;41.70;100904.88;2079019;28;47338;-59
2022/04/19 02:02:49;;;;;;;;;4.00;4.00;;;;;17.19;41.84;100904.00;2099148;27;47632;-59
2022/04/19 02:03:50;;;;;;;;;5.25;5.25;;;;;17.19;41.68;100908.50;2105310;28;47601;-58
2022/04/19 02:04:50;;;;;;;;;4.00;4.00;;;;;17.17;41.83;100907.69;2104895;27;47880;-60
2022/04/19 02:05:51;;;;;;;;;4.33;4.33;;;;;17.15;42.06;100912.22;2104695;27;47587;-59
2022/04/19 02:06:51;;;;;;;;;3.33;3.33;;;;;17.15;42.05;100909.56;2105071;28;47526;-60
2022/04/19 02:07:52;;;;;;;;;4.00;4.00;;;;;17.13;42.11;100906.94;2105078;27;48041;-59
2022/04/19 02:08:52;;;;;;;;;5.33;5.33;;;;;17.13;41.76;100911.44;2105197;27;47420;-58
2022/04/19 02:09:52;;;;;;;;;4.50;4.00;;;;;17.11;42.02;100908.81;2104807;28;47572;-57
2022/04/19 02:10:53;;;;;;;;;3.33;3.33;;;;;17.11;42.32;100913.31;2105030;27;47561;-59
2022/04/19 02:11:53;;;;;;;;;5.50;5.50;;;;;17.10;41.71;100906.22;2105069;28;46942;-59
2022/04/19 02:12:53;;;;;;;;;4.33;4.33;;;;;17.09;42.21;100904.47;2104627;27;47795;-59
2022/04/19 02:13:54;;;;;;;;;2.33;2.33;;;;;17.09;42.01;100897.31;2104735;27;48360;-59
2022/04/19 02:14:54;;;;;;;;;5.33;5.00;;;;;17.09;41.61;100908.03;2096751;28;47669;-58
2022/04/19 02:15:55;;;;;;;;;5.50;4.00;;;;;17.10;42.08;100901.72;2102410;27;47748;-59
2022/04/19 02:16:56;;;;;;;;;4.67;4.67;;;;;17.11;41.93;100907.97;2105073;27;47485;-58
2022/04/19 02:17:56;;;;;;;;;4.80;4.80;;;;;17.11;42.22;100906.16;2104615;27;47705;-60
2022/04/19 02:18:57;;;;;;;;;3.67;3.67;;;;;17.12;41.75;100898.97;2104955;27;47520;-58
2022/04/19 02:20:05;;;;;;;;;5.00;5.00;;;;;17.12;41.92;100905.19;2104851;28;47976;-59
2022/04/19 02:21:06;;;;;;;;;5.00;5.00;;;;;17.12;41.90;100904.34;2069723;28;47890;-59
2022/04/19 02:22:06;;;;;;;;;4.00;4.00;;;;;17.11;41.91;100900.78;2070299;28;47252;-59
2022/04/19 02:23:07;;;;;;;;;5.00;3.00;;;;;17.11;42.09;100902.59;2099156;28;47479;-59
2022/04/19 02:24:08;;;;;;;;;4.33;4.33;;;;;17.10;42.08;100903.53;2105084;27;48232;-59
2022/04/19 02:25:11;;;;;;;;;5.67;5.67;;;;;17.09;41.88;100904.47;2105131;27;47740;-60
2022/04/19 02:26:12;;;;;;;;;4.40;4.40;;;;;17.08;41.89;100902.75;2104999;28;47900;-60
2022/04/19 02:27:13;;;;;;;;;6.00;5.00;;;;;17.05;42.03;100898.41;2105058;27;47379;-58
2022/04/19 02:28:13;;;;;;;;;4.00;4.00;;;;;17.04;41.80;100902.03;2105133;27;47898;-59
2022/04/19 02:29:15;;;;;;;;;5.00;4.00;;;;;17.01;41.73;100896.78;2104855;27;48219;-57
2022/04/19 02:30:16;;;;;;;;;4.75;4.75;;;;;17.01;41.96;100902.13;2103677;27;48238;-59
2022/04/19 02:31:17;;;;;;;;;4.20;4.00;;;;;17.00;41.74;100898.59;2099399;28;47963;-60
2022/04/19 02:32:18;;;;;;;;;3.67;3.67;;;;;16.99;42.02;100907.56;2098344;27;47703;-58
2022/04/19 02:33:18;;;;;;;;;4.50;4.50;;;;;16.98;41.94;100899.59;2099631;27;47917;-59
2022/04/19 02:34:19;;;;;;;;;1.00;1.00;;;;;16.96;41.70;100899.69;2104486;28;47985;-59
2022/04/19 02:35:20;;;;;;;;;4.67;4.00;;;;;16.95;41.65;100899.75;2101143;27;47501;-59
2022/04/19 02:36:21;;;;;;;;;4.40;3.80;;;;;16.96;41.95;100905.03;2098263;27;47820;-59
2022/04/19 02:37:22;;;;;;;;;6.00;4.25;;;;;16.95;41.52;100900.63;2097568;28;47464;-59
2022/04/19 02:38:22;;;;;;;;;4.25;4.00;;;;;16.93;41.79;100899.81;2099627;27;47684;-58
2022/04/19 02:39:23;;;;;;;;;6.25;3.25;;;;;16.89;41.39;100903.56;2096827;28;47753;-58
2022/04/19 02:40:25;;;;;;;;;3.67;3.67;;;;;16.85;41.22;100898.41;2099344;27;48348;-60
2022/04/19 02:41:25;;;;;;;;;6.60;5.60;;;;;16.79;41.65;100896.03;2098808;27;47809;-61
2022/04/19 02:42:26;;;;;;;;;6.50;5.00;;;;;16.71;41.91;100897.22;2096561;28;47664;-59
2022/04/19 02:43:26;;;;;;;;;4.67;3.67;;;;;16.68;42.00;100896.50;2099826;27;47643;-59
2022/04/19 02:44:27;;;;;;;;;4.00;2.00;;;;;16.63;41.69;100899.31;2098772;27;47706;-58
2022/04/19 02:45:28;;;;;;;;;6.50;5.00;;;;;16.59;42.01;100903.09;2098331;27;46702;-60
2022/04/19 02:46:29;;;;;;;;;5.67;5.67;;;;;16.56;42.20;100897.00;2105464;27;47763;-59
2022/04/19 02:47:30;;;;;;;;;5.75;5.25;;;;;16.51;41.55;100894.50;2101920;27;47590;-59
2022/04/19 02:48:31;;;;;;;;;8.33;6.00;;;;;16.48;41.71;100903.53;2099028;28;47162;-59
2022/04/19 02:49:33;;;;;;;;;5.67;5.00;;;;;16.48;42.26;100900.00;2106572;27;47433;-59
2022/04/19 02:50:40;;;;;;;;;4.40;3.40;;;;;16.47;41.85;100892.91;2104656;28;47780;-59
2022/04/19 02:51:40;;;;;;;;;4.80;4.40;;;;;16.46;41.85;100897.38;2100037;27;48365;-59
2022/04/19 02:52:41;;;;;;;;;6.25;5.00;;;;;16.45;42.36;100890.28;2099509;27;48361;-58
2022/04/19 02:53:43;;;;;;;;;4.50;4.50;;;;;16.46;42.36;100897.38;2102248;27;47449;-59
2022/04/19 02:54:43;;;;;;;;;6.00;6.00;;;;;16.47;41.94;100907.16;2104623;27;47235;-59
2022/04/19 02:55:43;;;;;;;;;6.00;5.00;;;;;16.47;42.09;100893.75;2105237;28;45263;-59
2022/04/19 02:56:44;;;;;;;;;4.33;3.67;;;;;16.49;42.23;100894.56;2104917;27;47959;-59
2022/04/19 02:57:44;;;;;;;;;4.33;4.33;;;;;16.49;41.71;100894.56;2104719;27;47808;-59
2022/04/19 02:58:45;;;;;;;;;5.67;5.00;;;;;16.50;42.09;100895.44;2104926;28;47622;-58
2022/04/19 02:59:45;;;;;;;;;6.00;6.00;;;;;16.50;41.81;100890.06;2104567;27;47399;-57
2022/04/19 03:00:46;;;;;;;;;4.67;4.00;;;;;16.50;41.74;100890.06;2105146;27;48020;-58
2022/04/19 03:01:47;;;;;;;;;8.25;7.00;;;;;16.49;41.61;100897.25;2104838;27;48102;-58
2022/04/19 03:02:47;;;;;;;;;8.25;5.00;;;;;16.46;41.61;100897.38;2104949;27;48090;-59
2022/04/19 03:03:47;;;;;;;;;4.33;4.33;;;;;16.43;41.51;100893.97;2104563;28;46625;-59
2022/04/19 03:04:48;;;;;;;;;5.00;4.33;;;;;16.41;41.81;100902.09;2104862;27;48144;-59
2022/04/19 03:05:48;;;;;;;;;7.00;6.33;;;;;16.38;41.73;100899.50;2104940;27;47496;-60
2022/04/19 03:06:49;;;;;;;;;6.00;4.33;;;;;16.36;41.86;100895.16;2104816;28;47623;-59
2022/04/19 03:07:49;;;;;;;;;3.33;3.33;;;;;16.31;41.62;100898.03;2104017;27;47509;-60
2022/04/19 03:08:50;;;;;;;;;4.00;4.00;;;;;16.31;42.09;100902.53;2104960;27;47595;-60
2022/04/19 03:09:50;;;;;;;;;4.67;4.67;;;;;16.28;42.20;100895.50;2104896;27;47450;-59
2022/04/19 03:10:51;;;;;;;;;5.00;4.33;;;;;16.26;42.21;100904.50;2105215;27;47786;-60
2022/04/19 03:11:51;;;;;;;;;7.00;6.00;;;;;16.23;41.61;100891.25;2104818;28;47515;-60
2022/04/19 03:12:52;;;;;;;;;7.00;7.00;;;;;16.20;42.10;100892.28;2097699;27;47979;-58
2022/04/19 03:13:52;;;;;;;;;4.00;4.00;;;;;16.15;41.67;100889.78;2098809;27;47781;-58
2022/04/19 03:14:52;;;;;;;;;7.50;6.50;;;;;16.13;41.63;100889.00;2096149;28;48237;-59
2022/04/19 03:15:53;;;;;;;;;5.00;5.00;;;;;16.12;41.80;100897.06;2086765;28;47704;-59
2022/04/19 03:16:54;;;;;;;;;3.25;3.25;;;;;16.08;41.90;100892.78;2088041;27;47415;-59
2022/04/19 03:17:54;;;;;;;;;4.67;4.67;;;;;16.07;42.12;100891.03;2099080;27;47743;-59
2022/04/19 03:18:55;;;;;;;;;5.00;5.00;;;;;16.06;41.99;100889.31;2105341;27;47668;-59
2022/04/19 03:19:55;;;;;;;;;5.33;5.33;;;;;16.05;42.21;100893.78;2104534;27;47477;-60
2022/04/19 03:20:57;;;;;;;;;5.00;5.00;;;;;16.03;41.91;100887.63;2104461;27;47537;-60
2022/04/19 03:21:58;;;;;;;;;4.25;4.25;;;;;16.03;42.01;100890.31;2105091;27;48177;-59
2022/04/19 03:28:14;;;;;;;;;4.00;4.00;;;;;15.98;42.10;100884.25;2104172;27;47997;-58
2022/04/19 03:29:15;;;;;;;;;6.00;5.00;;;;;15.98;42.21;100878.03;2077914;28;47614;-59
2022/04/19 03:30:15;;;;;;;;;3.33;3.33;;;;;15.98;41.88;100881.56;2078137;28;47288;-59
2022/04/19 03:31:15;;;;;;;;;5.00;5.00;;;;;15.99;42.25;100882.44;2104196;27;48032;-58
2022/04/19 03:32:19;;;;;;;;;4.67;4.67;;;;;15.96;42.25;100880.78;2104922;27;47514;-59
2022/04/19 03:33:19;;;;;;;;;5.50;5.50;;;;;15.97;41.73;100885.19;2104869;27;47472;-58
2022/04/19 03:34:20;;;;;;;;;7.75;7.00;;;;;15.96;42.24;100888.81;2094301;28;48050;-59
2022/04/19 03:35:20;;;;;;;;;7.75;7.25;;;;;15.97;42.09;100887.88;2094927;28;47543;-59
2022/04/19 03:36:21;;;;;;;;;13.00;11.50;;;;;15.95;41.86;100887.06;2104670;27;47567;-59
2022/04/19 03:37:22;;;;;;;;;8.75;7.75;;;;;15.94;41.88;100888.00;2104353;27;47463;-59
2022/04/19 03:38:22;;;;;;;;;10.40;10.40;;;;;15.92;41.67;100883.66;2104965;27;46023;-57
2022/04/19 03:39:23;;;;;;;;;3.00;3.00;;;;;15.89;41.84;100880.16;2104096;27;47923;-60
2022/04/19 03:40:25;;;;;;;;;3.00;3.00;;;;;15.89;42.24;100881.97;2103384;27;47343;-60
2022/04/19 03:41:25;;;;;;;;;6.75;3.75;;;;;15.87;41.73;100883.81;2104779;27;47509;-58
2022/04/19 03:42:26;;;;;;;;;3.00;3.00;;;;;15.86;42.27;100882.94;2104525;27;47948;-58
2022/04/19 03:43:27;;;;;;;;;5.50;4.00;;;;;15.82;42.02;100877.78;2105063;27;47222;-60
2022/04/19 03:44:29;;;;;;;;;3.33;3.33;;;;;15.78;41.82;100874.38;2105029;27;47693;-60
2022/04/19 03:45:30;;;;;;;;;0.00;0.00;;;;;15.75;41.83;100879.88;2105328;27;48014;-60
2022/04/19 03:46:30;;;;;;;;;3.00;3.00;;;;;15.74;42.17;100882.56;2107076;27;47698;-59
2022/04/19 03:47:31;;;;;;;;;3.00;3.00;;;;;15.72;42.10;100881.78;2104646;27;47940;-60
2022/04/19 03:48:32;;;;;;;;;3.00;3.00;;;;;15.72;42.18;100879.09;2104362;27;46862;-60
2022/04/19 03:49:36;;;;;;;;;4.00;4.00;;;;;15.73;42.50;100875.47;2106768;27;48098;-60
2022/04/19 03:50:37;;;;;;;;;2.75;2.75;;;;;15.75;42.34;100874.50;2102901;27;47691;-59
2022/04/19 03:51:38;;;;;;;;;4.67;4.67;;;;;15.77;42.45;100877.13;2107359;27;48328;-60
2022/04/19 03:52:38;;;;;;;;;3.33;3.00;;;;;15.78;41.86;100878.88;2104488;27;47421;-60
2022/04/19 03:53:38;;;;;;;;;3.00;3.00;;;;;15.78;42.38;100881.53;2102106;27;47542;-60
2022/04/19 03:54:39;;;;;;;;;4.00;3.67;;;;;15.78;42.48;100876.19;2108017;27;47560;-59
2022/04/19 03:55:39;;;;;;;;;4.00;4.00;;;;;15.76;42.48;100868.22;2104039;27;47312;-59
2022/04/19 03:56:39;;;;;;;;;4.33;3.67;;;;;15.75;42.42;100871.84;2104904;27;47607;-60
2022/04/19 03:57:40;;;;;;;;;5.00;4.33;;;;;15.75;42.24;100869.16;2104988;27;47663;-58
2022/04/19 03:58:40;;;;;;;;;5.33;3.67;;;;;15.74;42.44;100867.38;2104375;27;47385;-58
2022/04/19 03:59:41;;;;;;;;;3.33;3.33;;;;;15.73;42.02;100868.31;2105252;27;47668;-59
2022/04/19 04:00:42;;;;;;;;;5.25;5.25;;;;;15.74;42.08;100869.19;2104063;27;47691;-59
2022/04/19 04:01:42;;;;;;;;;3.67;3.00;;;;;15.74;42.46;100870.06;2104418;27;47980;-58
2022/04/19 04:02:43;;;;;;;;;3.67;3.67;;;;;15.76;42.22;100868.22;2104014;27;47403;-59
2022/04/19 04:03:43;;;;;;;;;4.67;4.67;;;;;15.75;42.35;100866.47;2103069;27;47905;-58
2022/04/19 04:04:43;;;;;;;;;5.33;2.67;;;;;15.75;42.04;100863.81;2105485;27;47707;-59
2022/04/19 04:05:44;;;;;;;;;3.33;3.33;;;;;15.74;42.50;100869.19;2105021;27;47359;-59
2022/04/19 04:06:45;;;;;;;;;3.33;2.00;;;;;15.73;42.59;100868.31;2095263;28;47191;-59
2022/04/19 04:07:46;;;;;;;;;2.33;2.33;;;;;15.74;42.76;100867.38;2087639;28;48023;-59
2022/04/19 04:08:47;;;;;;;;;3.50;3.25;;;;;15.74;42.23;100867.38;2096353;27;47219;-61
2022/04/19 04:09:49;;;;;;;;;3.00;3.00;;;;;15.72;42.14;100865.72;2104147;27;49309;-59
2022/04/19 04:10:51;;;;;;;;;3.75;3.75;;;;;15.71;42.29;100867.53;2104962;27;47685;-59
2022/04/19 04:11:52;;;;;;;;;3.60;3.60;;;;;15.71;42.61;100872.88;2095663;28;47915;-59
2022/04/19 04:12:52;;;;;;;;;3.67;3.67;;;;;15.72;42.77;100866.59;2107369;27;47785;-60
2022/04/19 04:13:52;;;;;;;;;2.00;2.00;;;;;15.74;42.23;100863.84;2109674;27;47489;-58
2022/04/19 04:14:53;;;;;;;;;4.00;2.33;;;;;15.76;42.51;100870.03;2104156;27;47649;-60
2022/04/19 04:15:53;;;;;;;;;4.33;4.33;;;;;15.77;42.45;100869.09;2105008;27;47467;-59
2022/04/19 04:16:53;;;;;;;;;3.00;2.33;;;;;15.78;42.85;100865.47;2104903;27;47359;-59
2022/04/19 04:17:54;;;;;;;;;6.33;3.67;;;;;15.80;42.67;100868.97;2104018;27;47740;-59
2022/04/19 04:18:54;;;;;;;;;6.00;5.33;;;;;15.81;42.85;100874.25;2104779;27;47907;-59
2022/04/19 04:19:59;;;;;;;;;3.67;3.67;;;;;15.84;42.72;100867.91;2087234;28;47353;-60
2022/04/19 04:20:59;;;;;;;;;4.25;4.25;;;;;15.84;42.69;100871.44;2088479;28;48288;-59
2022/04/19 04:22:00;;;;;;;;;2.67;2.67;;;;;15.86;42.33;100871.38;2106358;27;47841;-59
2022/04/19 04:23:00;;;;;;;;;7.33;6.00;;;;;15.86;42.16;100871.38;2105501;27;46598;-59
2022/04/19 04:24:01;;;;;;;;;3.67;3.00;;;;;15.84;42.81;100865.22;2106360;27;47275;-59
2022/04/19 04:25:04;;;;;;;;;4.67;4.67;;;;;15.84;42.46;100868.75;2106449;27;45638;-59
2022/04/19 04:26:05;;;;;;;;;3.00;3.00;;;;;15.80;42.33;100863.63;2105610;27;47334;-59
2022/04/19 04:27:05;;;;;;;;;6.00;4.00;;;;;15.78;42.53;100865.47;2106160;27;47621;-58
2022/04/19 04:28:06;;;;;;;;;4.75;4.50;;;;;15.75;42.73;100863.81;2105883;27;47648;-59
2022/04/19 04:29:06;;;;;;;;;1.75;1.75;;;;;15.74;42.74;100872.75;2105631;27;47945;-60
2022/04/19 04:30:07;;;;;;;;;4.00;4.00;;;;;15.73;42.93;100864.78;2106355;27;47475;-59
2022/04/19 04:31:08;;;;;;;;;3.33;3.33;;;;;15.70;42.62;100865.78;2094763;28;47835;-57
2022/04/19 04:32:08;;;;;;;;;4.00;4.00;;;;;15.70;42.79;100867.59;2089716;28;47171;-59
2022/04/19 04:33:08;;;;;;;;;2.67;2.67;;;;;15.69;43.06;100869.41;2104795;27;47417;-59
2022/04/19 04:34:09;;;;;;;;;3.00;3.00;;;;;15.69;43.03;100864.03;2113600;27;47745;-58
2022/04/19 04:35:10;;;;;;;;;2.00;2.00;;;;;15.69;42.86;100861.38;2105886;27;47628;-59
2022/04/19 04:36:10;;;;;;;;;3.67;3.67;;;;;15.71;42.84;100861.31;2102915;27;47677;-59
2022/04/19 04:37:11;;;;;;;;;4.00;3.00;;;;;15.70;43.18;100855.09;2105696;28;47691;-59
2022/04/19 04:38:11;;;;;;;;;2.33;2.00;;;;;15.72;43.16;100866.59;2102838;27;47613;-59
2022/04/19 04:39:12;;;;;;;;;2.67;2.00;;;;;15.72;42.67;100869.25;2103500;28;47810;-60
2022/04/19 04:40:12;;;;;;;;;3.67;3.67;;;;;15.74;43.23;100858.50;2105225;27;46904;-58
2022/04/19 04:41:13;;;;;;;;;5.67;4.67;;;;;15.74;42.91;100861.16;2102926;27;47401;-59
2022/04/19 04:42:13;;;;;;;;;4.00;4.00;;;;;15.72;43.09;100863.91;2105143;28;47240;-59
2022/04/19 04:43:13;;;;;;;;;2.67;2.67;;;;;15.71;42.94;100867.53;2103016;27;47924;-59
2022/04/19 04:44:14;;;;;;;;;6.00;3.33;;;;;15.68;43.04;100864.09;2084987;28;48154;-59
2022/04/19 04:45:14;;;;;;;;;3.00;3.00;;;;;15.65;43.09;100874.94;2079387;28;47566;-60
2022/04/19 04:50:11;;;;;;;;;4.75;3.75;;;;;15.50;43.43;100884.38;2103644;28;48181;-60
2022/04/19 04:51:13;;;;;;;;;4.33;4.33;;;;;15.46;43.30;100886.31;2103626;27;47892;-60
2022/04/19 04:52:15;;;;;;;;;4.50;3.50;;;;;15.44;43.57;100885.50;2107975;27;47627;-59
2022/04/19 04:53:15;;;;;;;;;6.00;4.00;;;;;15.41;43.49;100885.63;2101305;27;47632;-59
2022/04/19 04:54:15;;;;;;;;;5.00;4.67;;;;;15.40;43.81;100883.03;2104137;27;47250;-59
2022/04/19 04:55:16;;;;;;;;;4.00;3.50;;;;;15.37;43.64;100892.00;2104460;27;47183;-60